createdAt,value
2022-10-28T00:00:47.417Z,11.17
2022-10-28T00:01:47.504Z,11.07
2022-10-28T00:02:47.489Z,11.19
2022-10-28T00:03:47.393Z,11.10
2022-10-28T00:04:47.360Z,11.12
2022-10-28T00:05:47.352Z,11.05
2022-10-28T00:06:47.339Z,11.10
2022-10-28T00:07:47.370Z,11.10
2022-10-28T00:08:47.319Z,11.05
2022-10-28T00:09:47.328Z,11.08
2022-10-28T00:10:47.293Z,11.05
2022-10-28T00:11:47.289Z,11.04
2022-10-28T00:12:47.279Z,11.05
2022-10-28T00:13:47.368Z,11.05
2022-10-28T00:14:47.268Z,10.99
2022-10-28T00:15:47.237Z,10.99
2022-10-28T00:16:47.260Z,10.97
2022-10-28T00:17:47.221Z,11.04
2022-10-28T00:18:47.201Z,10.92
2022-10-28T00:19:47.226Z,10.94
2022-10-28T00:20:47.202Z,10.94
2022-10-28T00:21:47.171Z,10.97
2022-10-28T00:22:47.165Z,10.96
2022-10-28T00:23:47.152Z,10.84
2022-10-28T00:24:47.222Z,10.92
2022-10-28T00:25:47.165Z,10.89
2022-10-28T00:26:47.119Z,10.96
2022-10-28T00:27:47.102Z,10.87
2022-10-28T00:28:47.107Z,10.96
2022-10-28T00:29:47.098Z,10.92
2022-10-28T00:30:47.066Z,10.96
2022-10-28T00:31:47.083Z,10.92
2022-10-28T00:32:47.063Z,11.02
2022-10-28T00:33:47.045Z,10.93
2022-10-28T00:34:47.058Z,11.02
2022-10-28T00:35:47.007Z,10.93
2022-10-28T00:36:47.003Z,10.90
2022-10-28T00:37:47.073Z,10.94
2022-10-28T00:38:46.992Z,10.93
2022-10-28T00:39:46.964Z,10.94
2022-10-28T00:40:46.967Z,10.92
2022-10-28T00:41:46.966Z,10.99
2022-10-28T00:42:46.937Z,10.93
2022-10-28T00:43:46.948Z,10.87
2022-10-28T00:44:46.927Z,10.87
2022-10-28T00:45:46.906Z,10.86
2022-10-28T00:46:46.892Z,10.92
2022-10-28T00:47:46.894Z,10.87
2022-10-28T00:48:46.866Z,10.90
2022-10-28T00:49:46.881Z,10.89
2022-10-28T00:50:46.846Z,10.87
2022-10-28T00:51:46.828Z,10.82
2022-10-28T00:52:46.816Z,10.84
2022-10-28T00:53:46.826Z,10.78
2022-10-28T00:54:46.793Z,10.87
2022-10-28T00:55:46.907Z,10.79
2022-10-28T00:56:46.770Z,10.84
2022-10-28T00:57:46.783Z,10.81
2022-10-28T00:58:46.757Z,10.75
2022-10-28T00:59:46.737Z,10.86
2022-10-28T01:00:46.766Z,10.78
2022-10-28T01:01:46.908Z,10.79
2022-10-28T01:02:46.875Z,10.74
2022-10-28T01:03:46.700Z,10.74
2022-10-28T01:04:46.707Z,10.79
2022-10-28T01:05:46.673Z,10.74
2022-10-28T01:06:46.667Z,10.71
2022-10-28T01:07:46.670Z,10.79
2022-10-28T01:08:46.663Z,10.82
2022-10-28T01:09:46.631Z,10.74
2022-10-28T01:10:46.614Z,10.78
2022-10-28T01:11:46.606Z,10.78
2022-10-28T01:12:46.593Z,10.72
2022-10-28T01:13:46.615Z,10.81
2022-10-28T01:14:46.575Z,10.72
2022-10-28T01:15:46.566Z,10.71
2022-10-28T01:16:46.615Z,10.78
2022-10-28T01:17:46.546Z,10.76
2022-10-28T01:18:46.553Z,10.78
2022-10-28T01:19:46.551Z,10.78
2022-10-28T01:20:48.334Z,10.76
2022-10-28T01:21:46.498Z,10.81
2022-10-28T01:22:46.483Z,10.84
2022-10-28T01:23:46.471Z,10.82
2022-10-28T01:24:46.467Z,10.90
2022-10-28T01:25:46.509Z,10.81
2022-10-28T01:26:46.434Z,10.79
2022-10-28T01:27:46.450Z,10.82
2022-10-28T01:28:46.413Z,10.82
2022-10-28T01:29:46.428Z,10.82
2022-10-28T01:30:46.394Z,10.84
2022-10-28T01:31:46.391Z,10.81
2022-10-28T01:32:46.368Z,10.87
2022-10-28T01:33:46.391Z,10.87
2022-10-28T01:34:46.360Z,10.90
2022-10-28T01:35:46.341Z,10.89
2022-10-28T01:36:46.323Z,10.90
2022-10-28T01:37:46.322Z,10.86
2022-10-28T01:38:46.305Z,10.96
2022-10-28T01:39:46.285Z,10.93
2022-10-28T01:40:46.395Z,10.79
2022-10-28T01:41:46.272Z,10.89
2022-10-28T01:42:46.254Z,10.92
2022-10-28T01:43:46.281Z,10.93
2022-10-28T01:44:46.229Z,10.79
2022-10-28T01:45:46.253Z,10.89
2022-10-28T01:46:46.204Z,10.90
2022-10-28T01:47:46.200Z,10.90
2022-10-28T01:48:46.192Z,10.86
2022-10-28T01:49:46.231Z,10.89
2022-10-28T01:50:46.170Z,10.86
2022-10-28T01:51:46.149Z,10.81
2022-10-28T01:52:46.142Z,10.87
2022-10-28T01:53:46.137Z,10.82
2022-10-28T01:54:46.119Z,10.84
2022-10-28T01:55:46.173Z,10.87
2022-10-28T01:56:46.099Z,10.81
2022-10-28T01:57:46.115Z,10.86
2022-10-28T01:58:46.073Z,10.84
2022-10-28T01:59:46.068Z,10.86
2022-10-28T02:00:46.138Z,10.84
2022-10-28T02:01:46.337Z,10.79
2022-10-28T02:02:46.035Z,10.84
2022-10-28T02:03:46.024Z,10.84
2022-10-28T02:04:46.022Z,10.89
2022-10-28T02:05:45.997Z,10.86
2022-10-28T02:06:46.012Z,10.81
2022-10-28T02:07:46.043Z,10.89
2022-10-28T02:08:45.963Z,10.81
2022-10-28T02:09:45.957Z,10.89
2022-10-28T02:10:45.955Z,10.86
2022-10-28T02:11:45.939Z,10.79
2022-10-28T02:12:45.922Z,10.82
2022-10-28T02:13:45.981Z,10.86
2022-10-28T02:14:45.901Z,10.86
2022-10-28T02:15:45.886Z,10.84
2022-10-28T02:16:45.882Z,10.84
2022-10-28T02:17:45.889Z,10.79
2022-10-28T02:18:45.854Z,10.82
2022-10-28T02:19:45.862Z,10.81
2022-10-28T02:20:45.829Z,10.74
2022-10-28T02:21:45.824Z,10.82
2022-10-28T02:22:46.410Z,10.76
2022-10-28T02:23:45.802Z,10.79
2022-10-28T02:24:45.802Z,10.78
2022-10-28T02:25:45.805Z,10.75
2022-10-28T02:26:45.761Z,10.75
2022-10-28T02:27:45.755Z,10.74
2022-10-28T02:28:45.742Z,10.78
2022-10-28T02:29:45.728Z,10.81
2022-10-28T02:30:45.720Z,10.76
2022-10-28T02:31:45.733Z,10.76
2022-10-28T02:32:45.692Z,10.68
2022-10-28T02:33:45.777Z,10.74
2022-10-28T02:34:45.676Z,10.64
2022-10-28T02:35:45.694Z,10.69
2022-10-28T02:36:45.675Z,10.69
2022-10-28T02:37:45.696Z,10.64
2022-10-28T02:38:45.627Z,10.71
2022-10-28T02:39:45.622Z,10.64
2022-10-28T02:40:45.656Z,10.68
2022-10-28T02:41:45.615Z,10.60
2022-10-28T02:42:45.579Z,10.67
2022-10-28T02:43:45.598Z,10.69
2022-10-28T02:44:45.560Z,10.63
2022-10-28T02:45:45.547Z,10.67
2022-10-28T02:46:45.538Z,10.63
2022-10-28T02:47:45.526Z,10.69
2022-10-28T02:48:45.510Z,10.68
2022-10-28T02:49:45.574Z,10.64
2022-10-28T02:50:45.496Z,10.69
2022-10-28T02:51:45.473Z,10.68
2022-10-28T02:52:45.487Z,10.63
2022-10-28T02:53:45.463Z,10.64
2022-10-28T02:54:45.460Z,10.63
2022-10-28T02:55:45.484Z,10.68
2022-10-28T02:56:45.443Z,10.67
2022-10-28T02:57:45.407Z,10.56
2022-10-28T02:58:45.403Z,10.54
2022-10-28T02:59:45.385Z,10.59
2022-10-28T03:00:45.389Z,10.61
2022-10-28T03:01:45.539Z,10.61
2022-10-28T03:02:45.349Z,10.63
2022-10-28T03:03:45.341Z,10.51
2022-10-28T03:04:45.342Z,10.67
2022-10-28T03:05:45.391Z,10.54
2022-10-28T03:06:45.307Z,10.56
2022-10-28T03:07:45.353Z,10.56
2022-10-28T03:08:45.285Z,10.48
2022-10-28T03:09:45.270Z,10.56
2022-10-28T03:10:45.266Z,10.54
2022-10-28T03:11:45.247Z,10.51
2022-10-28T03:12:45.236Z,10.54
2022-10-28T03:13:45.321Z,10.51
2022-10-28T03:14:45.216Z,10.44
2022-10-28T03:15:45.267Z,10.42
2022-10-28T03:16:45.191Z,10.44
2022-10-28T03:17:45.193Z,10.48
2022-10-28T03:18:45.170Z,10.46
2022-10-28T03:19:45.242Z,10.44
2022-10-28T03:20:45.149Z,10.48
2022-10-28T03:21:45.163Z,10.53
2022-10-28T03:22:45.153Z,10.38
2022-10-28T03:23:45.149Z,10.34
2022-10-28T03:24:45.113Z,10.34
2022-10-28T03:25:45.123Z,10.37
2022-10-28T03:26:45.084Z,10.30
2022-10-28T03:27:45.074Z,10.25
2022-10-28T03:28:45.055Z,10.34
2022-10-28T03:29:46.095Z,10.30
2022-10-28T03:30:45.035Z,10.33
2022-10-28T03:31:45.060Z,10.33
2022-10-28T03:32:45.017Z,10.33
2022-10-28T03:33:44.999Z,10.33
2022-10-28T03:34:44.990Z,10.26
2022-10-28T03:35:44.974Z,10.25
2022-10-28T03:36:44.970Z,10.19
2022-10-28T03:37:45.008Z,10.25
2022-10-28T03:38:44.942Z,10.19
2022-10-28T03:39:44.965Z,10.25
2022-10-28T03:40:44.922Z,10.33
2022-10-28T03:41:44.916Z,10.25
2022-10-28T03:42:44.900Z,10.33
2022-10-28T03:43:44.898Z,10.26
2022-10-28T03:44:44.893Z,10.26
2022-10-28T03:45:44.879Z,10.33
2022-10-28T03:46:44.873Z,10.33
2022-10-28T03:47:44.836Z,10.33
2022-10-28T03:48:44.830Z,10.37
2022-10-28T03:49:44.826Z,10.33
2022-10-28T03:50:44.807Z,10.30
2022-10-28T03:51:44.793Z,10.33
2022-10-28T03:52:44.782Z,10.30
2022-10-28T03:53:44.847Z,10.31
2022-10-28T03:54:44.758Z,10.31
2022-10-28T03:55:44.767Z,10.25
2022-10-28T03:56:44.738Z,10.30
2022-10-28T03:57:44.724Z,10.33
2022-10-28T03:58:44.766Z,10.33
2022-10-28T03:59:44.711Z,10.35
2022-10-28T04:00:44.695Z,10.30
2022-10-28T04:01:44.839Z,10.25
2022-10-28T04:02:44.665Z,10.23
2022-10-28T04:03:44.662Z,10.25
2022-10-28T04:04:44.644Z,10.19
2022-10-28T04:05:44.720Z,10.23
2022-10-28T04:06:44.638Z,10.17
2022-10-28T04:07:44.625Z,10.19
2022-10-28T04:08:44.617Z,10.20
2022-10-28T04:09:44.612Z,10.19
2022-10-28T04:10:47.289Z,10.22
2022-10-28T04:11:44.572Z,10.20
2022-10-28T04:12:44.585Z,10.23
2022-10-28T04:13:44.584Z,10.15
2022-10-28T04:14:44.535Z,10.15
2022-10-28T04:15:44.525Z,10.17
2022-10-28T04:16:44.522Z,10.23
2022-10-28T04:17:44.503Z,10.23
2022-10-28T04:18:44.492Z,10.25
2022-10-28T04:19:44.513Z,10.23
2022-10-28T04:20:44.467Z,10.20
2022-10-28T04:21:44.457Z,10.19
2022-10-28T04:22:44.446Z,10.16
2022-10-28T04:23:44.429Z,10.19
2022-10-28T04:24:44.449Z,10.25
2022-10-28T04:25:44.451Z,10.26
2022-10-28T04:26:44.404Z,10.25
2022-10-28T04:27:44.389Z,10.20
2022-10-28T04:28:44.372Z,10.16
2022-10-28T04:29:44.366Z,10.19
2022-10-28T04:30:44.347Z,10.17
2022-10-28T04:31:46.462Z,10.10
2022-10-28T04:32:44.333Z,10.05
2022-10-28T04:33:44.334Z,10.07
2022-10-28T04:34:44.328Z,10.13
2022-10-28T04:35:44.291Z,10.12
2022-10-28T04:36:44.286Z,10.05
2022-10-28T04:37:44.304Z,10.02
2022-10-28T04:38:44.290Z,10.05
2022-10-28T04:39:44.244Z,10.07
2022-10-28T04:40:44.253Z,10.04
2022-10-28T04:41:44.250Z,10.15
2022-10-28T04:42:44.215Z,10.10
2022-10-28T04:43:44.252Z,10.04
2022-10-28T04:44:44.191Z,10.10
2022-10-28T04:45:44.183Z,10.05
2022-10-28T04:46:44.168Z,10.10
2022-10-28T04:47:44.182Z,10.09
2022-10-28T04:48:44.147Z,10.07
2022-10-28T04:49:44.177Z,10.05
2022-10-28T04:50:44.124Z,10.12
2022-10-28T04:51:44.216Z,10.05
2022-10-28T04:52:44.097Z,10.10
2022-10-28T04:53:44.112Z,10.02
2022-10-28T04:54:44.074Z,10.07
2022-10-28T04:55:44.099Z,10.05
2022-10-28T04:56:44.050Z,10.07
2022-10-28T04:57:44.063Z,10.05
2022-10-28T04:58:44.030Z,10.02
2022-10-28T04:59:44.021Z,9.99
2022-10-28T05:00:44.008Z,9.97
2022-10-28T05:01:44.184Z,10.02
2022-10-28T05:02:46.095Z,9.94
2022-10-28T05:03:44.013Z,10.01
2022-10-28T05:04:43.966Z,9.91
2022-10-28T05:05:43.948Z,9.98
2022-10-28T05:06:43.943Z,9.95
2022-10-28T05:07:43.981Z,9.94
2022-10-28T05:08:43.911Z,9.98
2022-10-28T05:09:43.908Z,9.92
2022-10-28T05:10:43.920Z,9.95
2022-10-28T05:11:43.892Z,9.92
2022-10-28T05:12:43.874Z,9.89
2022-10-28T05:13:43.906Z,9.87
2022-10-28T05:14:43.847Z,9.91
2022-10-28T05:15:43.833Z,9.89
2022-10-28T05:16:43.825Z,9.94
2022-10-28T05:17:43.814Z,9.91
2022-10-28T05:19:43.808Z,9.97
2022-10-28T05:20:43.781Z,9.92
2022-10-28T05:21:43.771Z,9.89
2022-10-28T05:22:43.754Z,9.92
2022-10-28T05:23:43.741Z,9.91
2022-10-28T05:24:43.735Z,9.86
2022-10-28T05:25:43.760Z,9.91
2022-10-28T05:26:43.718Z,9.99
2022-10-28T05:27:43.701Z,9.94
2022-10-28T05:28:43.689Z,9.98
2022-10-28T05:29:43.732Z,10.02
2022-10-28T05:30:43.660Z,9.95
2022-10-28T05:31:43.734Z,10.01
2022-10-28T05:32:43.642Z,10.02
2022-10-28T05:33:43.679Z,10.04
2022-10-28T05:34:43.614Z,10.05
2022-10-28T05:35:43.610Z,10.05
2022-10-28T05:36:43.609Z,10.09
2022-10-28T05:37:43.617Z,10.19
2022-10-28T05:38:43.577Z,10.17
2022-10-28T05:39:43.558Z,10.15
2022-10-28T05:40:43.553Z,10.12
2022-10-28T05:41:43.534Z,10.16
2022-10-28T05:42:43.527Z,10.20
2022-10-28T05:43:43.559Z,10.19
2022-10-28T05:44:43.501Z,10.15
2022-10-28T05:45:43.543Z,10.20
2022-10-28T05:46:43.499Z,10.19
2022-10-28T05:47:43.466Z,10.20
2022-10-28T05:48:43.457Z,10.25
2022-10-28T05:49:43.484Z,10.13
2022-10-28T05:50:43.436Z,10.19
2022-10-28T05:51:43.423Z,10.23
2022-10-28T05:52:43.409Z,10.20
2022-10-28T05:53:43.404Z,10.20
2022-10-28T05:54:43.387Z,10.20
2022-10-28T05:55:46.802Z,10.22
2022-10-28T05:56:43.363Z,10.22
2022-10-28T05:57:43.388Z,10.19
2022-10-28T05:58:43.427Z,10.22
2022-10-28T05:59:43.356Z,10.28
2022-10-28T06:00:43.318Z,10.17
2022-10-28T06:01:43.422Z,10.22
2022-10-28T06:02:43.296Z,10.31
2022-10-28T06:03:43.314Z,10.30
2022-10-28T06:04:43.293Z,10.26
2022-10-28T06:05:43.262Z,10.23
2022-10-28T06:06:43.257Z,10.22
2022-10-28T06:07:43.252Z,10.23
2022-10-28T06:08:43.224Z,10.22
2022-10-28T06:09:43.235Z,10.17
2022-10-28T06:10:43.207Z,10.23
2022-10-28T06:11:41.653Z,10.16
2022-10-28T06:12:41.644Z,10.19
2022-10-28T06:13:41.739Z,10.17
2022-10-28T06:14:41.628Z,10.31
2022-10-28T06:15:41.616Z,10.33
2022-10-28T06:16:41.619Z,10.34
2022-10-28T06:17:41.612Z,10.31
2022-10-28T06:18:41.587Z,10.33
2022-10-28T06:19:41.676Z,10.44
2022-10-28T06:20:41.564Z,10.46
2022-10-28T06:21:41.552Z,10.51
2022-10-28T06:22:41.558Z,10.48
2022-10-28T06:23:41.533Z,10.53
2022-10-28T06:24:41.523Z,10.53
2022-10-28T06:25:41.545Z,10.44
2022-10-28T06:26:41.502Z,10.46
2022-10-28T06:27:41.494Z,10.56
2022-10-28T06:28:41.477Z,10.49
2022-10-28T06:29:41.479Z,10.54
2022-10-28T06:30:41.456Z,10.61
2022-10-28T06:31:41.465Z,10.56
2022-10-28T06:32:41.440Z,10.61
2022-10-28T06:33:41.443Z,10.61
2022-10-28T06:34:41.419Z,10.61
2022-10-28T06:35:41.403Z,10.71
2022-10-28T06:36:41.402Z,10.67
2022-10-28T06:37:41.422Z,10.74
2022-10-28T06:38:41.368Z,10.75
2022-10-28T06:39:41.391Z,10.78
2022-10-28T06:40:41.346Z,10.78
2022-10-28T06:41:41.364Z,10.74
2022-10-28T06:42:41.333Z,10.76
2022-10-28T06:43:41.377Z,10.74
2022-10-28T06:44:41.338Z,10.75
2022-10-28T06:45:41.292Z,10.76
2022-10-28T06:46:42.803Z,10.76
2022-10-28T06:47:42.800Z,10.76
2022-10-28T06:48:42.785Z,10.76
2022-10-28T06:49:42.880Z,10.82
2022-10-28T06:50:42.758Z,10.87
2022-10-28T06:51:42.743Z,10.86
2022-10-28T06:52:42.863Z,10.75
2022-10-28T06:53:42.725Z,10.84
2022-10-28T06:54:42.714Z,10.87
2022-10-28T06:55:42.725Z,10.93
2022-10-28T06:56:42.694Z,10.87
2022-10-28T06:57:42.698Z,10.92
2022-10-28T06:58:42.675Z,10.93
2022-10-28T06:59:42.676Z,10.84
2022-10-28T07:00:42.655Z,10.96
2022-10-28T07:01:42.774Z,11.02
2022-10-28T07:02:45.075Z,11.04
2022-10-28T07:03:42.621Z,11.00
2022-10-28T07:04:42.608Z,11.05
2022-10-28T07:05:42.623Z,11.04
2022-10-28T07:06:42.589Z,11.05
2022-10-28T07:07:42.613Z,11.08
2022-10-28T07:08:42.591Z,11.17
2022-10-28T07:09:42.559Z,11.22
2022-10-28T07:10:42.548Z,11.23
2022-10-28T07:11:42.533Z,11.14
2022-10-28T07:12:42.527Z,11.18
2022-10-28T07:13:44.319Z,11.25
2022-10-28T07:14:42.503Z,11.32
2022-10-28T07:15:42.495Z,11.25
2022-10-28T07:16:42.684Z,11.25
2022-10-28T07:17:42.477Z,11.27
2022-10-28T07:18:42.458Z,11.19
2022-10-28T07:19:42.469Z,11.32
2022-10-28T07:20:42.439Z,11.25
2022-10-28T07:21:42.459Z,11.33
2022-10-28T07:22:42.423Z,11.30
2022-10-28T07:23:42.423Z,11.30
2022-10-28T07:24:42.399Z,11.37
2022-10-28T07:25:42.502Z,11.45
2022-10-28T07:26:42.383Z,11.44
2022-10-28T07:27:42.372Z,11.40
2022-10-28T07:28:42.349Z,11.54
2022-10-28T07:29:42.349Z,11.52
2022-10-28T07:30:42.333Z,11.52
2022-10-28T07:31:42.359Z,11.54
2022-10-28T07:32:42.311Z,11.47
2022-10-28T07:33:42.293Z,11.59
2022-10-28T07:34:42.295Z,11.60
2022-10-28T07:35:42.273Z,11.59
2022-10-28T07:36:42.275Z,11.55
2022-10-28T07:37:42.400Z,11.57
2022-10-28T07:38:42.241Z,11.52
2022-10-28T07:39:42.241Z,11.45
2022-10-28T07:40:42.221Z,11.65
2022-10-28T07:41:42.216Z,11.52
2022-10-28T07:42:42.200Z,11.59
2022-10-28T07:43:42.200Z,11.63
2022-10-28T07:44:42.172Z,11.63
2022-10-28T07:45:42.180Z,11.65
2022-10-28T07:46:42.146Z,11.83
2022-10-28T07:47:42.141Z,11.87
2022-10-28T07:48:42.156Z,11.88
2022-10-28T07:49:42.168Z,11.84
2022-10-28T07:50:42.113Z,11.90
2022-10-28T07:51:42.119Z,11.94
2022-10-28T07:52:42.086Z,11.84
2022-10-28T07:53:42.095Z,12.03
2022-10-28T07:54:42.058Z,12.00
2022-10-28T07:55:42.079Z,12.03
2022-10-28T07:56:42.036Z,12.06
2022-10-28T07:57:42.023Z,12.13
2022-10-28T07:58:42.008Z,12.25
2022-10-28T07:59:42.015Z,12.24
2022-10-28T08:00:41.992Z,12.25
2022-10-28T08:01:42.186Z,12.24
2022-10-28T08:02:41.963Z,12.36
2022-10-28T08:03:41.950Z,12.42
2022-10-28T08:04:41.938Z,12.43
2022-10-28T08:05:41.924Z,12.43
2022-10-28T08:06:41.967Z,12.40
2022-10-28T08:07:41.927Z,12.47
2022-10-28T08:08:41.881Z,12.43
2022-10-28T08:09:41.897Z,12.55
2022-10-28T08:10:41.857Z,12.55
2022-10-28T08:11:41.838Z,12.60
2022-10-28T08:12:41.831Z,12.67
2022-10-28T08:13:41.831Z,12.68
2022-10-28T08:14:41.799Z,12.72
2022-10-28T08:15:41.795Z,12.75
2022-10-28T08:16:41.776Z,12.85
2022-10-28T08:17:41.778Z,12.80
2022-10-28T08:18:41.758Z,12.93
2022-10-28T08:19:41.770Z,12.98
2022-10-28T08:20:41.728Z,13.01
2022-10-28T08:21:41.710Z,13.05
2022-10-28T08:22:41.699Z,13.23
2022-10-28T08:23:41.703Z,13.23
2022-10-28T08:24:41.674Z,13.33
2022-10-28T08:25:41.772Z,13.31
2022-10-28T08:26:41.655Z,13.31
2022-10-28T08:27:41.642Z,13.44
2022-10-28T08:28:41.635Z,13.47
2022-10-28T08:29:41.617Z,13.68
2022-10-28T08:30:56.673Z,13.72
2022-10-28T08:31:42.621Z,13.74
2022-10-28T08:32:41.587Z,13.90
2022-10-28T08:33:41.579Z,13.86
2022-10-28T08:34:43.625Z,13.90
2022-10-28T08:35:41.701Z,13.93
2022-10-28T08:36:41.607Z,14.04
2022-10-28T08:37:41.565Z,14.07
2022-10-28T08:38:45.278Z,14.10
2022-10-28T08:39:41.510Z,14.17
2022-10-28T08:40:41.995Z,14.15
2022-10-28T08:41:41.634Z,14.07
2022-10-28T08:42:41.475Z,14.07
2022-10-28T08:43:56.647Z,14.04
2022-10-28T08:44:42.453Z,14.03
2022-10-28T08:45:41.434Z,14.07
2022-10-28T08:46:41.439Z,14.00
2022-10-28T08:47:41.493Z,13.99
2022-10-28T08:48:41.426Z,13.95
2022-10-28T08:49:43.418Z,13.86
2022-10-28T08:50:41.386Z,13.85
2022-10-28T08:51:41.400Z,13.87
2022-10-28T08:52:41.387Z,13.87
2022-10-28T08:53:41.348Z,13.78
2022-10-28T08:54:41.343Z,13.89
2022-10-28T08:55:41.361Z,13.86
2022-10-28T08:56:41.344Z,13.96
2022-10-28T08:57:41.359Z,13.87
2022-10-28T08:58:41.291Z,13.87
2022-10-28T08:59:41.284Z,13.83
2022-10-28T09:00:41.275Z,13.90
2022-10-28T09:01:41.620Z,13.89
2022-10-28T09:02:41.265Z,13.85
2022-10-28T09:03:41.240Z,13.87
2022-10-28T09:04:41.226Z,13.93
2022-10-28T09:05:41.219Z,14.03
2022-10-28T09:06:41.298Z,14.04
2022-10-28T09:07:41.210Z,14.07
2022-10-28T09:08:41.185Z,14.17
2022-10-28T09:09:41.169Z,14.17
2022-10-28T09:10:41.166Z,14.23
2022-10-28T09:11:41.175Z,14.35
2022-10-28T09:12:41.168Z,14.36
2022-10-28T09:13:41.187Z,14.37
2022-10-28T09:14:41.115Z,14.36
2022-10-28T09:16:41.092Z,14.48
2022-10-28T09:17:41.082Z,14.50
2022-10-28T09:18:41.078Z,14.55
2022-10-28T09:19:41.070Z,14.50
2022-10-28T09:20:41.080Z,14.55
2022-10-28T09:21:41.034Z,14.59
2022-10-28T09:22:41.023Z,14.69
2022-10-28T09:23:41.016Z,14.60
2022-10-28T09:24:40.993Z,14.62
2022-10-28T09:25:41.025Z,14.63
2022-10-28T09:26:40.996Z,14.66
2022-10-28T09:27:40.966Z,14.68
2022-10-28T09:28:40.973Z,14.66
2022-10-28T09:29:44.181Z,14.59
2022-10-28T09:30:40.936Z,14.66
2022-10-28T09:31:40.981Z,14.72
2022-10-28T09:32:40.909Z,14.72
2022-10-28T09:33:40.894Z,14.73
2022-10-28T09:34:40.915Z,14.81
2022-10-28T09:35:40.875Z,14.91
2022-10-28T09:36:40.864Z,14.85
2022-10-28T09:37:40.888Z,14.88
2022-10-28T09:38:40.840Z,14.96
2022-10-28T09:39:40.834Z,15.00
2022-10-28T09:40:40.829Z,15.00
2022-10-28T09:41:40.812Z,15.07
2022-10-28T09:43:40.870Z,15.17
2022-10-28T09:44:40.769Z,15.24
2022-10-28T09:45:40.799Z,15.27
2022-10-28T09:46:40.745Z,15.28
2022-10-28T09:47:40.754Z,15.24
2022-10-28T09:48:40.727Z,15.31
2022-10-28T09:49:40.742Z,15.36
2022-10-28T09:50:40.765Z,15.33
2022-10-28T09:51:40.690Z,15.51
2022-10-28T09:52:40.680Z,15.54
2022-10-28T09:53:40.675Z,15.59
2022-10-28T09:54:40.674Z,15.61
2022-10-28T09:55:40.668Z,15.80
2022-10-28T09:56:40.633Z,15.90
2022-10-28T09:57:40.630Z,15.86
2022-10-28T09:58:40.616Z,15.98
2022-10-28T09:59:40.609Z,16.17
2022-10-28T10:00:40.604Z,16.21
2022-10-28T10:01:40.729Z,16.41
2022-10-28T10:02:40.652Z,16.51
2022-10-28T10:03:40.555Z,16.72
2022-10-28T10:04:40.547Z,16.65
2022-10-28T10:05:40.533Z,16.72
2022-10-28T10:06:40.529Z,16.74
2022-10-28T10:07:40.546Z,16.79
2022-10-28T10:08:40.499Z,16.97
2022-10-28T10:09:40.497Z,16.94
2022-10-28T10:10:40.474Z,17.12
2022-10-28T10:11:40.469Z,17.22
2022-10-28T10:12:40.461Z,17.15
2022-10-28T10:13:40.467Z,17.22
2022-10-28T10:14:40.440Z,17.24
2022-10-28T10:15:40.422Z,17.31
2022-10-28T10:16:40.411Z,17.30
2022-10-28T10:17:40.424Z,17.38
2022-10-28T10:18:40.397Z,17.29
2022-10-28T10:19:40.390Z,17.30
2022-10-28T10:20:40.373Z,17.24
2022-10-28T10:21:40.348Z,17.24
2022-10-28T10:22:40.337Z,17.26
2022-10-28T10:24:40.315Z,17.14
2022-10-28T10:25:40.400Z,17.16
2022-10-28T10:26:40.288Z,17.09
2022-10-28T10:27:40.279Z,17.19
2022-10-28T10:28:40.271Z,17.09
2022-10-28T10:29:40.254Z,17.09
2022-10-28T10:30:40.248Z,17.14
2022-10-28T10:31:40.253Z,17.01
2022-10-28T10:32:40.222Z,17.08
2022-10-28T10:33:40.247Z,17.08
2022-10-28T10:34:40.197Z,17.05
2022-10-28T10:35:40.194Z,17.11
2022-10-28T10:36:40.176Z,17.19
2022-10-28T10:37:40.228Z,17.06
2022-10-28T10:38:40.160Z,17.05
2022-10-28T10:39:40.170Z,17.12
2022-10-28T10:40:40.142Z,17.14
2022-10-28T10:41:40.129Z,17.14
2022-10-28T10:42:51.620Z,17.15
2022-10-28T10:43:41.218Z,17.15
2022-10-28T10:44:40.090Z,17.19
2022-10-28T10:45:40.083Z,17.16
2022-10-28T10:46:40.064Z,17.19
2022-10-28T10:47:40.103Z,17.26
2022-10-28T10:48:40.044Z,17.26
2022-10-28T10:49:40.123Z,17.27
2022-10-28T10:50:40.024Z,17.29
2022-10-28T10:51:40.941Z,17.39
2022-10-28T10:52:39.998Z,17.34
2022-10-28T10:53:39.982Z,17.44
2022-10-28T10:54:39.975Z,17.44
2022-10-28T10:55:39.974Z,17.44
2022-10-28T10:56:39.955Z,17.45
2022-10-28T10:57:39.960Z,17.36
2022-10-28T10:58:39.930Z,17.45
2022-10-28T10:59:39.918Z,17.45
2022-10-28T11:00:39.924Z,17.41
2022-10-28T11:01:40.074Z,17.41
2022-10-28T11:02:40.124Z,17.54
2022-10-28T11:03:39.866Z,17.46
2022-10-28T11:04:39.862Z,17.52
2022-10-28T11:05:39.870Z,17.38
2022-10-28T11:06:39.994Z,17.41
2022-10-28T11:07:39.862Z,17.52
2022-10-28T11:08:39.808Z,17.48
2022-10-28T11:09:39.808Z,17.52
2022-10-28T11:10:39.786Z,17.51
2022-10-28T11:11:39.781Z,17.48
2022-10-28T11:12:39.772Z,17.54
2022-10-28T11:13:42.282Z,17.57
2022-10-28T11:14:40.744Z,17.54
2022-10-28T11:15:39.753Z,17.56
2022-10-28T11:16:39.723Z,17.57
2022-10-28T11:17:39.710Z,17.57
2022-10-28T11:18:39.705Z,17.60
2022-10-28T11:19:39.719Z,17.59
2022-10-28T11:20:39.686Z,17.56
2022-10-28T11:21:39.686Z,17.57
2022-10-28T11:22:39.649Z,17.70
2022-10-28T11:23:39.644Z,17.68
2022-10-28T11:24:39.636Z,17.65
2022-10-28T11:25:39.689Z,17.72
2022-10-28T11:26:39.608Z,17.76
2022-10-28T11:27:39.596Z,17.65
2022-10-28T11:28:39.588Z,17.70
2022-10-28T11:29:39.570Z,17.70
2022-10-28T11:30:39.593Z,17.78
2022-10-28T11:31:39.582Z,17.68
2022-10-28T11:32:48.803Z,17.72
2022-10-28T11:33:40.532Z,17.70
2022-10-28T11:34:39.515Z,17.79
2022-10-28T11:35:39.521Z,17.74
2022-10-28T11:36:39.521Z,17.76
2022-10-28T11:37:39.520Z,17.65
2022-10-28T11:38:44.636Z,17.70
2022-10-28T11:39:40.460Z,17.63
2022-10-28T11:40:39.455Z,17.76
2022-10-28T11:41:39.443Z,17.76
2022-10-28T11:42:39.451Z,17.72
2022-10-28T11:43:39.520Z,17.74
2022-10-28T11:45:39.409Z,17.65
2022-10-28T11:46:39.386Z,17.57
2022-10-28T11:47:39.373Z,17.46
2022-10-28T11:48:39.354Z,17.39
2022-10-28T11:49:39.362Z,17.36
2022-10-28T11:50:39.331Z,17.29
2022-10-28T11:51:39.331Z,17.16
2022-10-28T11:52:44.977Z,17.16
2022-10-28T11:53:40.322Z,17.04
2022-10-28T11:54:39.293Z,16.99
2022-10-28T11:55:39.327Z,16.91
2022-10-28T11:56:39.273Z,16.91
2022-10-28T11:57:39.264Z,16.84
2022-10-28T11:58:39.260Z,16.86
2022-10-28T11:59:39.281Z,16.76
2022-10-28T12:00:39.219Z,16.75
2022-10-28T12:01:39.403Z,16.78
2022-10-28T12:02:39.287Z,16.69
2022-10-28T12:03:39.182Z,16.68
2022-10-28T12:04:39.182Z,16.61
2022-10-28T12:05:39.172Z,16.74
2022-10-28T12:06:39.184Z,16.64
2022-10-28T12:07:39.158Z,16.54
2022-10-28T12:08:39.127Z,16.56
2022-10-28T12:09:39.150Z,16.58
2022-10-28T12:10:39.104Z,16.53
2022-10-28T12:11:39.097Z,16.42
2022-10-28T12:12:41.285Z,16.42
2022-10-28T12:13:39.135Z,16.41
2022-10-28T12:14:39.059Z,16.38
2022-10-28T12:15:39.254Z,16.41
2022-10-28T12:16:39.039Z,16.36
2022-10-28T12:17:39.036Z,16.36
2022-10-28T12:18:39.039Z,16.36
2022-10-28T12:19:39.043Z,16.38
2022-10-28T12:20:38.999Z,16.26
2022-10-28T12:21:39.040Z,16.17
2022-10-28T12:22:38.970Z,16.24
2022-10-28T12:23:38.958Z,16.23
2022-10-28T12:24:38.972Z,16.26
2022-10-28T12:25:39.003Z,16.17
2022-10-28T12:26:38.923Z,16.16
2022-10-28T12:27:38.908Z,16.12
2022-10-28T12:28:38.903Z,16.24
2022-10-28T12:29:38.904Z,16.20
2022-10-28T12:30:38.882Z,16.28
2022-10-28T12:31:38.900Z,16.26
2022-10-28T12:32:38.854Z,16.32
2022-10-28T12:33:38.882Z,16.41
2022-10-28T12:34:38.830Z,16.39
2022-10-28T12:35:38.821Z,16.46
2022-10-28T12:36:38.807Z,16.47
2022-10-28T12:37:39.609Z,16.50
2022-10-28T12:38:38.818Z,16.57
2022-10-28T12:39:38.784Z,16.54
2022-10-28T12:40:38.762Z,16.58
2022-10-28T12:41:38.830Z,16.58
2022-10-28T12:42:38.750Z,16.61
2022-10-28T12:43:38.740Z,16.61
2022-10-28T12:44:38.729Z,16.69
2022-10-28T12:45:38.706Z,16.72
2022-10-28T12:46:38.819Z,16.75
2022-10-28T12:47:42.113Z,16.76
2022-10-28T12:48:38.672Z,16.76
2022-10-28T12:49:38.677Z,16.89
2022-10-28T12:50:38.649Z,16.93
2022-10-28T12:51:38.647Z,16.96
2022-10-28T12:52:38.634Z,16.97
2022-10-28T12:53:38.617Z,16.96
2022-10-28T12:54:38.607Z,17.02
2022-10-28T12:55:38.643Z,17.06
2022-10-28T12:56:38.583Z,17.06
2022-10-28T12:57:38.601Z,17.02
2022-10-28T12:58:38.559Z,17.08